This is the latest recevied weather packets stored in our database for station/object OE6CBX-1. If no packets are shown the sender has not sent any weather packets the latest 10 day(s).
| Time | Temp. | Humidity | Pressure | Rain* | Wind** | Luminosity | Snow |
|---|---|---|---|---|---|---|---|
| 1777522511 | 2.78° C | 46% | 991 hPa | - | - | - | - |
| 1777521611 | 2.78° C | 47% | 990.9 hPa | - | - | - | - |
| 1777520711 | 2.78° C | 46% | 990.8 hPa | - | - | - | - |
| 1777519811 | 2.78° C | 47% | 990.9 hPa | - | - | - | - |
| 1777518911 | 3.33° C | 46% | 990.7 hPa | - | - | - | - |
| 1777518011 | 3.33° C | 47% | 990.6 hPa | - | - | - | - |
| 1777517111 | 3.89° C | 44% | 990.6 hPa | - | - | - | - |
| 1777516211 | 4.44° C | 42% | 990.6 hPa | - | - | - | - |
| 1777515311 | 5° C | 38% | 990.4 hPa | - | - | - | - |
| 1777514410 | 5° C | 35% | 990.5 hPa | - | - | - | - |
| 1777513510 | 5.56° C | 36% | 990.3 hPa | - | - | - | - |
| 1777512610 | 5° C | 39% | 990.2 hPa | - | - | - | - |
| 1777511710 | 5.56° C | 36% | 990.2 hPa | - | - | - | - |
| 1777510810 | 5.56° C | 35% | 990.1 hPa | - | - | - | - |
| 1777509910 | 6.11° C | 36% | 989.9 hPa | - | - | - | - |
| 1777509010 | 6.11° C | 36% | 989.8 hPa | - | - | - | - |
| 1777508110 | 6.67° C | 34% | 989.6 hPa | - | - | - | - |
| 1777507210 | 6.67° C | 33% | 989.5 hPa | - | - | - | - |
| 1777506310 | 7.22° C | 28% | 989.3 hPa | - | - | - | - |
| 1777505410 | 7.22° C | 28% | 989.2 hPa | - | - | - | - |
| 1777504510 | 7.22° C | 30% | 989.2 hPa | - | - | - | - |
| 1777503610 | 7.78° C | 29% | 989 hPa | - | - | - | - |
| 1777502710 | 7.78° C | 30% | 989 hPa | - | - | - | - |
| 1777501808 | 8.33° C | 31% | 988.7 hPa | - | - | - | - |
| 1777500908 | 8.33° C | 31% | 988.6 hPa | - | - | - | - |
* Rain since midnight (hover to see other rain measurements)
** Current wind speed in m/s (hover to see current wind gust speed)